Time;durP1;ratioP1;P1;durP2;ratioP2;P2;SDS_P1;SDS_P2;PMS_P1;PMS_P2;Temp;Humidity;BMP_temperature;BMP_pressure;BME280_temperature;BME280_humidity;BME280_pressure;Samples;Min_cycle;Max_cycle;Signal;HPM_P1;HPM_P2
2021/12/17 00:01:06;;;;;;;10.40;6.20;;;6.60;99.90;;;;;;5023829;28;20044;-51
2021/12/17 00:03:43;;;;;;;13.27;7.13;;;6.50;99.90;;;;;;5024022;28;20042;-51
2021/12/17 00:06:17;;;;;;;12.75;7.60;;;6.50;99.90;;;;;;5040330;28;20110;-50
2021/12/17 00:08:47;;;;;;;12.75;7.32;;;6.50;99.90;;;;;;5050926;28;20025;-55
2021/12/17 00:11:14;;;;;;;10.73;7.47;;;6.50;99.90;;;;;;5050154;28;20147;-52
2021/12/17 00:13:43;;;;;;;14.68;8.15;;;6.60;99.90;;;;;;5045670;28;20022;-56
2021/12/17 00:16:15;;;;;;;15.27;8.57;;;6.60;99.90;;;;;;5039469;28;20539;-51
2021/12/17 00:19:01;;;;;;;14.60;7.97;;;6.60;99.90;;;;;;5037597;28;20543;-52
2021/12/17 00:48:51;;;;;;;15.30;9.32;;;6.60;99.90;;;;;;5049153;28;20498;-52
2021/12/17 00:53:45;;;;;;;14.02;9.82;;;6.60;99.90;;;;;;5031428;28;20092;-56
2021/12/17 00:56:10;;;;;;;17.60;11.02;;;6.60;99.90;;;;;;5047439;28;20468;-58
2021/12/17 00:58:36;;;;;;;18.00;10.27;;;6.70;99.90;;;;;;5049639;28;20035;-55
2021/12/17 01:01:02;;;;;;;15.70;10.02;;;6.70;99.90;;;;;;5049253;28;20025;-55
2021/12/17 01:03:27;;;;;;;19.52;10.70;;;6.60;99.90;;;;;;5038567;28;20060;-50
2021/12/17 01:05:53;;;;;;;17.42;10.40;;;6.60;99.90;;;;;;5041082;28;20036;-52
2021/12/17 01:08:19;;;;;;;16.48;9.80;;;6.60;99.90;;;;;;5049630;28;20037;-52
2021/12/17 01:10:50;;;;;;;18.27;10.65;;;6.60;99.90;;;;;;5041064;28;20037;-56
2021/12/17 01:13:15;;;;;;;18.42;11.25;;;6.60;99.90;;;;;;5016083;28;20487;-52
2021/12/17 01:15:42;;;;;;;20.35;11.25;;;6.70;99.90;;;;;;5049414;28;20025;-51
2021/12/17 01:18:14;;;;;;;20.65;11.85;;;6.70;99.90;;;;;;5032749;28;20040;-52
2021/12/17 01:36:28;;;;;;;18.67;10.73;;;6.70;99.90;;;;;;5030819;28;20075;-55
2021/12/17 01:44:13;;;;;;;13.80;8.43;;;6.70;99.90;;;;;;5037695;28;20121;-50
2021/12/17 01:46:39;;;;;;;15.20;8.48;;;6.70;99.90;;;;;;5037241;28;20047;-53
2021/12/17 01:49:27;;;;;;;11.65;6.93;;;6.70;99.90;;;;;;5041502;28;20045;-49
2021/12/17 02:00:16;;;;;;;11.70;6.15;;;6.70;99.90;;;;;;5036197;28;20086;-54
2021/12/17 02:02:46;;;;;;;8.50;5.47;;;6.80;99.90;;;;;;5030703;28;20541;-51
2021/12/17 02:05:14;;;;;;;8.48;4.90;;;6.80;99.90;;;;;;5035041;28;20070;-56
2021/12/17 02:07:42;;;;;;;7.32;5.47;;;6.80;99.90;;;;;;5045604;28;20129;-54
2021/12/17 02:32:03;;;;;;;12.20;6.47;;;6.80;99.90;;;;;;5053302;28;20087;-54
2021/12/17 02:34:52;;;;;;;9.05;5.80;;;6.80;99.90;;;;;;5049821;28;20021;-49
2021/12/17 02:37:22;;;;;;;9.40;5.22;;;6.80;99.90;;;;;;5033124;28;20030;-57
2021/12/17 02:47:41;;;;;;;5.68;3.80;;;6.70;99.90;;;;;;5045985;28;20043;-56
2021/12/17 02:50:10;;;;;;;7.25;3.50;;;6.70;99.90;;;;;;5049858;28;20033;-56
2021/12/17 02:52:37;;;;;;;4.35;2.70;;;6.70;99.90;;;;;;5052584;28;20483;-53
2021/12/17 02:55:05;;;;;;;5.68;3.35;;;6.60;99.90;;;;;;5052992;28;20044;-49
2021/12/17 02:57:32;;;;;;;6.65;3.30;;;6.60;99.90;;;;;;5046006;28;20455;-56
2021/12/17 02:59:59;;;;;;;6.60;3.42;;;6.50;99.90;;;;;;5040256;28;20033;-56
2021/12/17 03:02:29;;;;;;;5.75;3.60;;;6.60;99.90;;;;;;5044376;28;20040;-50
2021/12/17 03:04:55;;;;;;;3.90;2.90;;;6.50;99.90;;;;;;5037442;28;20028;-52
2021/12/17 03:07:20;;;;;;;3.55;2.45;;;6.50;99.90;;;;;;5052469;28;20394;-54
2021/12/17 03:10:03;;;;;;;3.85;2.78;;;6.50;99.90;;;;;;5051674;28;20403;-55
2021/12/17 03:12:53;;;;;;;3.85;2.78;;;6.50;99.90;;;;;;5040660;28;20033;-49
2021/12/17 03:16:10;;;;;;;4.70;2.60;;;6.50;99.90;;;;;;5035603;28;20368;-50
2021/12/17 03:23:40;;;;;;;3.10;2.22;;;6.50;99.90;;;;;;5032759;28;20400;-49
2021/12/17 03:26:20;;;;;;;3.22;2.45;;;6.50;99.90;;;;;;5032158;28;20483;-50
2021/12/17 03:28:49;;;;;;;4.28;2.53;;;6.50;99.90;;;;;;5047205;28;20402;-53
2021/12/17 03:31:16;;;;;;;5.70;2.40;;;6.50;99.90;;;;;;5051701;28;20025;-57
2021/12/17 03:33:44;;;;;;;4.40;2.72;;;6.50;99.90;;;;;;5052318;28;20033;-52
2021/12/17 03:36:14;;;;;;;3.30;2.15;;;6.50;99.90;;;;;;5033261;28;20428;-54
2021/12/17 03:38:42;;;;;;;4.13;2.00;;;6.50;99.90;;;;;;5030434;28;20061;-50
2021/12/17 03:43:40;;;;;;;3.67;2.53;;;6.50;99.90;;;;;;5051993;28;20497;-53
2021/12/17 03:46:06;;;;;;;3.30;2.60;;;6.50;99.90;;;;;;5035598;28;20017;-55
2021/12/17 03:48:36;;;;;;;4.03;2.17;;;6.50;99.90;;;;;;5034370;28;20186;-53
2021/12/17 03:51:02;;;;;;;4.55;2.58;;;6.40;99.90;;;;;;5050204;28;20029;-56
2021/12/17 03:53:28;;;;;;;4.78;2.60;;;6.50;99.90;;;;;;5051487;28;20032;-51
2021/12/17 03:55:53;;;;;;;2.78;2.00;;;6.40;99.90;;;;;;5049903;28;20033;-51
2021/12/17 03:58:19;;;;;;;3.47;2.10;;;6.40;99.90;;;;;;5033575;28;20091;-50
2021/12/17 04:00:45;;;;;;;2.63;1.73;;;6.30;99.90;;;;;;5033571;28;20035;-49
2021/12/17 04:03:11;;;;;;;3.10;2.08;;;6.30;99.90;;;;;;5051662;28;20025;-49
2021/12/17 04:05:37;;;;;;;2.67;1.65;;;6.20;99.90;;;;;;5040586;28;20554;-51
2021/12/17 04:08:03;;;;;;;2.13;1.50;;;6.20;99.90;;;;;;5037763;28;20041;-50
2021/12/17 04:10:38;;;;;;;3.38;2.05;;;6.10;99.90;;;;;;5045489;28;20036;-50
2021/12/17 04:13:15;;;;;;;3.72;1.88;;;6.10;99.90;;;;;;5062159;22;20035;-57
2021/12/17 04:15:43;;;;;;;2.30;1.10;;;6.10;99.90;;;;;;5037322;28;20029;-54
2021/12/17 04:18:10;;;;;;;1.83;1.17;;;6.10;99.90;;;;;;5039035;28;20103;-50
2021/12/17 04:20:36;;;;;;;1.50;1.00;;;6.20;99.90;;;;;;5044024;28;20429;-51
2021/12/17 04:23:03;;;;;;;1.30;0.80;;;6.10;99.90;;;;;;5049511;28;20040;-53
2021/12/17 04:25:28;;;;;;;1.52;0.98;;;6.10;99.90;;;;;;5040467;28;20403;-50
2021/12/17 04:27:55;;;;;;;1.83;0.95;;;6.10;99.90;;;;;;5040488;28;20030;-54
2021/12/17 04:30:21;;;;;;;2.40;1.40;;;6.10;99.90;;;;;;5040314;28;20033;-54
2021/12/17 04:32:47;;;;;;;2.72;1.40;;;6.00;99.90;;;;;;5040148;28;20087;-55
2021/12/17 04:35:13;;;;;;;2.63;0.98;;;6.00;99.90;;;;;;5050132;28;20033;-51
2021/12/17 04:37:38;;;;;;;2.25;1.05;;;6.00;99.90;;;;;;5050306;28;20025;-51
2021/12/17 04:40:04;;;;;;;2.35;1.25;;;6.00;99.90;;;;;;5038390;28;20039;-55
2021/12/17 04:42:45;;;;;;;1.90;0.98;;;6.00;99.90;;;;;;5046496;28;20027;-54
2021/12/17 04:45:10;;;;;;;2.25;1.15;;;5.90;99.90;;;;;;5046516;28;20108;-52
2021/12/17 04:58:32;;;;;;;3.25;1.50;;;5.80;99.90;;;;;;5030405;28;20526;-52
2021/12/17 05:01:00;;;;;;;2.88;1.70;;;5.80;99.90;;;;;;5035429;28;20017;-51
2021/12/17 05:03:26;;;;;;;3.38;1.98;;;5.80;99.90;;;;;;5039602;28;20024;-52
2021/12/17 05:05:51;;;;;;;3.17;2.00;;;5.90;99.90;;;;;;5050222;28;20472;-50
2021/12/17 05:08:20;;;;;;;4.40;2.13;;;5.80;99.90;;;;;;5049973;28;20111;-52
2021/12/17 05:18:50;;;;;;;4.05;1.98;;;5.80;99.90;;;;;;5046374;28;20037;-51
2021/12/17 05:21:17;;;;;;;4.35;2.17;;;5.80;99.90;;;;;;5038077;28;20041;-52
2021/12/17 05:23:44;;;;;;;7.05;2.72;;;5.80;99.90;;;;;;5049963;28;20111;-53
2021/12/17 05:26:14;;;;;;;4.53;1.92;;;5.80;99.90;;;;;;5031341;28;20025;-53
2021/12/17 05:28:41;;;;;;;2.85;1.70;;;5.80;99.90;;;;;;5043629;28;20029;-54
2021/12/17 05:31:07;;;;;;;4.68;2.30;;;5.70;99.90;;;;;;5047841;28;20029;-52
2021/12/17 05:33:33;;;;;;;6.38;3.03;;;5.80;99.90;;;;;;5049157;28;20036;-53
2021/12/17 05:35:59;;;;;;;7.90;3.63;;;5.80;99.90;;;;;;5048260;28;20028;-52
2021/12/17 05:38:27;;;;;;;5.55;2.30;;;5.80;99.90;;;;;;5035906;28;20029;-54
2021/12/17 05:40:54;;;;;;;8.35;3.42;;;5.80;99.90;;;;;;5029413;28;20053;-53
2021/12/17 05:43:20;;;;;;;4.93;3.15;;;5.80;99.90;;;;;;5030288;28;20026;-51
2021/12/17 05:45:51;;;;;;;5.95;3.58;;;5.80;99.90;;;;;;5029372;28;20034;-53
2021/12/17 05:48:22;;;;;;;7.00;3.33;;;5.80;99.90;;;;;;5029270;28;20136;-51
2021/12/17 05:50:50;;;;;;;8.05;3.70;;;5.80;99.90;;;;;;5029401;28;20100;-51
2021/12/17 05:53:17;;;;;;;8.35;3.70;;;5.80;99.90;;;;;;5029558;28;20424;-54
2021/12/17 05:55:43;;;;;;;8.10;3.63;;;5.90;99.90;;;;;;5033053;28;20052;-51
2021/12/17 05:58:09;;;;;;;5.82;3.40;;;5.90;99.90;;;;;;5041829;28;20033;-53
2021/12/17 06:00:36;;;;;;;7.03;4.05;;;5.80;99.90;;;;;;5033492;28;20038;-55
2021/12/17 06:03:02;;;;;;;8.23;4.43;;;5.90;99.90;;;;;;5029120;28;20037;-54
2021/12/17 06:05:29;;;;;;;6.03;2.63;;;5.90;99.90;;;;;;5039751;28;20037;-52
2021/12/17 06:07:55;;;;;;;6.47;3.72;;;5.90;99.90;;;;;;5049265;28;20466;-52
2021/12/17 06:10:22;;;;;;;4.90;3.10;;;5.80;99.90;;;;;;5039891;28;20445;-50
2021/12/17 06:12:48;;;;;;;6.13;3.47;;;5.90;99.90;;;;;;5029721;28;20026;-52
2021/12/17 06:15:16;;;;;;;7.03;3.08;;;5.80;99.90;;;;;;5042478;28;20171;-52
2021/12/17 06:17:42;;;;;;;5.65;3.17;;;5.80;99.90;;;;;;5048940;28;20026;-53
2021/12/17 06:20:10;;;;;;;6.75;2.95;;;5.80;99.90;;;;;;5043607;28;20028;-51
2021/12/17 06:22:36;;;;;;;6.53;3.88;;;5.80;99.90;;;;;;5032504;28;20686;-52
2021/12/17 06:25:04;;;;;;;5.43;3.40;;;5.80;99.90;;;;;;5036769;28;20029;-52
2021/12/17 06:27:30;;;;;;;7.40;3.97;;;5.80;99.90;;;;;;5049229;28;20029;-52
2021/12/17 06:29:55;;;;;;;10.25;5.40;;;5.80;99.90;;;;;;5037170;28;20040;-53
2021/12/17 06:32:21;;;;;;;9.88;4.93;;;5.80;99.90;;;;;;5039182;28;20051;-54
2021/12/17 06:34:48;;;;;;;6.93;4.13;;;5.80;99.90;;;;;;5032705;28;20033;-54
2021/12/17 06:37:17;;;;;;;7.85;4.03;;;5.80;99.90;;;;;;5039182;28;20032;-51
2021/12/17 06:39:43;;;;;;;8.70;3.97;;;5.80;99.90;;;;;;5033435;28;20030;-52
2021/12/17 06:42:10;;;;;;;5.63;3.35;;;5.80;99.90;;;;;;5046408;28;20028;-53
2021/12/17 06:44:36;;;;;;;5.25;2.95;;;5.80;99.90;;;;;;5047120;28;20597;-50
2021/12/17 06:49:44;;;;;;;8.52;3.78;;;5.80;99.90;;;;;;5041641;28;20376;-52
2021/12/17 06:55:33;;;;;;;7.72;3.45;;;5.80;99.90;;;;;;5042125;28;20133;-51
2021/12/17 07:09:28;;;;;;;5.65;3.33;;;5.70;99.90;;;;;;5018521;28;20195;-51
2021/12/17 07:17:13;;;;;;;6.05;2.95;;;5.70;99.90;;;;;;5043611;28;20059;-50
2021/12/17 07:32:04;;;;;;;7.03;3.97;;;5.50;99.90;;;;;;5032028;28;20083;-52
2021/12/17 07:33:23;;;;;;;10.98;4.95;;;5.50;99.90;;;;;;5031796;28;20292;-52
2021/12/17 07:35:54;;;;;;;9.48;4.72;;;5.50;99.90;;;;;;5035277;28;20524;-52
2021/12/17 07:38:40;;;;;;;7.97;4.88;;;5.50;99.90;;;;;;5050452;28;20021;-51
2021/12/17 07:41:07;;;;;;;8.07;5.90;;;5.40;99.90;;;;;;5051925;28;20051;-52
2021/12/17 07:43:50;;;;;;;8.43;4.90;;;5.40;99.90;;;;;;5051760;28;20031;-54
2021/12/17 07:46:16;;;;;;;8.80;5.88;;;5.40;99.90;;;;;;5042153;28;20022;-54
2021/12/17 07:48:42;;;;;;;9.77;5.93;;;5.40;99.90;;;;;;5032113;28;20048;-54
2021/12/17 07:51:10;;;;;;;8.38;5.75;;;5.40;99.90;;;;;;5031596;28;20036;-53
2021/12/17 07:53:36;;;;;;;10.35;6.22;;;5.40;99.90;;;;;;5032544;28;20036;-53
2021/12/17 07:56:04;;;;;;;11.45;6.95;;;5.40;99.90;;;;;;5031720;28;20055;-51
2021/12/17 07:58:31;;;;;;;21.33;7.25;;;5.50;99.90;;;;;;5031212;28;20045;-51
2021/12/17 08:00:57;;;;;;;13.70;8.07;;;5.50;99.90;;;;;;5030955;28;20025;-55
2021/12/17 08:03:23;;;;;;;15.52;7.75;;;5.50;99.90;;;;;;5040070;28;20085;-52
2021/12/17 08:05:50;;;;;;;14.60;8.65;;;5.50;99.90;;;;;;5046771;28;20076;-53
2021/12/17 08:08:16;;;;;;;13.38;8.55;;;5.50;99.90;;;;;;5047001;28;20087;-51
2021/12/17 08:10:41;;;;;;;19.20;9.50;;;5.50;99.90;;;;;;5032184;28;20040;-53
2021/12/17 08:13:13;;;;;;;17.08;10.07;;;5.50;99.90;;;;;;5029943;28;20123;-52
2021/12/17 08:15:46;;;;;;;16.27;10.07;;;5.50;99.90;;;;;;5031917;28;20076;-51
2021/12/17 08:18:32;;;;;;;18.92;11.35;;;5.50;99.90;;;;;;5031089;28;20055;-52
2021/12/17 08:24:37;;;;;;;21.88;12.60;;;5.50;99.90;;;;;;5031473;28;20032;-56
2021/12/17 08:32:01;;;;;;;23.00;14.23;;;5.50;99.90;;;;;;5042380;28;20025;-51
2021/12/17 08:34:27;;;;;;;22.20;13.60;;;5.50;99.90;;;;;;5028176;28;20029;-51
2021/12/17 08:36:53;;;;;;;22.58;12.77;;;5.60;99.90;;;;;;5033972;28;20482;-50
2021/12/17 08:39:19;;;;;;;18.83;11.73;;;5.60;99.90;;;;;;5050992;28;20032;-52
2021/12/17 08:41:50;;;;;;;20.13;11.50;;;5.50;99.90;;;;;;5051283;28;20064;-52
2021/12/17 08:44:16;;;;;;;17.95;11.52;;;5.50;99.90;;;;;;5050624;28;20025;-53
2021/12/17 08:46:41;;;;;;;18.27;12.68;;;5.50;99.90;;;;;;5050862;28;20494;-51
2021/12/17 08:49:07;;;;;;;19.10;12.98;;;5.50;99.90;;;;;;5050471;28;20021;-51
2021/12/17 08:51:33;;;;;;;22.02;12.18;;;5.50;99.90;;;;;;5050638;28;20423;-50
2021/12/17 08:53:59;;;;;;;20.02;9.25;;;5.50;99.90;;;;;;5049890;28;20402;-55
2021/12/17 08:56:36;;;;;;;11.95;7.53;;;5.50;99.90;;;;;;5049485;28;20025;-53
2021/12/17 08:59:05;;;;;;;7.53;5.38;;;5.50;99.90;;;;;;5050390;28;20108;-54
2021/12/17 09:01:31;;;;;;;7.38;4.55;;;5.50;99.90;;;;;;5049443;28;20025;-53
2021/12/17 09:03:56;;;;;;;6.32;4.30;;;5.50;99.90;;;;;;5050720;28;20542;-54
2021/12/17 09:06:26;;;;;;;4.35;3.30;;;5.50;99.90;;;;;;5050519;28;20017;-52
2021/12/17 09:08:56;;;;;;;4.53;3.08;;;5.50;99.90;;;;;;5050402;28;20059;-52
2021/12/17 09:11:23;;;;;;;5.13;4.25;;;5.50;99.90;;;;;;5049644;28;20415;-51
2021/12/17 09:13:50;;;;;;;7.20;4.70;;;5.40;99.90;;;;;;5050241;28;20041;-51
2021/12/17 09:16:17;;;;;;;5.32;4.03;;;5.40;99.90;;;;;;5046695;28;20026;-52
2021/12/17 09:18:44;;;;;;;6.82;3.72;;;5.50;99.90;;;;;;5044507;28;20037;-55
2021/12/17 09:21:10;;;;;;;5.63;4.10;;;5.50;99.90;;;;;;5049636;28;20171;-55
2021/12/17 09:23:36;;;;;;;7.50;4.05;;;5.50;99.90;;;;;;5048541;28;20512;-50
2021/12/17 09:26:01;;;;;;;6.85;4.10;;;5.50;99.90;;;;;;5028807;28;20100;-51
2021/12/17 09:28:29;;;;;;;5.70;4.25;;;5.50;99.90;;;;;;5027863;28;20032;-53
2021/12/17 09:30:54;;;;;;;5.38;4.10;;;5.50;99.90;;;;;;5014566;28;20114;-51
2021/12/17 09:33:20;;;;;;;7.07;3.83;;;5.50;99.90;;;;;;5029632;28;20438;-52
2021/12/17 09:35:45;;;;;;;8.57;4.00;;;5.50;99.90;;;;;;5029628;28;20055;-54
2021/12/17 09:38:11;;;;;;;5.25;3.90;;;5.50;99.90;;;;;;5032262;28;20112;-54
2021/12/17 09:40:37;;;;;;;7.80;3.85;;;5.50;99.90;;;;;;5031739;28;20055;-53
2021/12/17 09:43:03;;;;;;;5.40;3.47;;;5.60;99.90;;;;;;5029008;28;20509;-53
2021/12/17 09:45:29;;;;;;;3.10;2.33;;;5.60;99.90;;;;;;5029411;28;20126;-51
2021/12/17 09:47:55;;;;;;;3.45;2.42;;;5.60;99.90;;;;;;5028970;28;20029;-52
2021/12/17 09:50:21;;;;;;;2.72;2.00;;;5.60;99.90;;;;;;5029804;28;20025;-52
2021/12/17 09:52:48;;;;;;;2.67;1.77;;;5.60;99.90;;;;;;5029238;28;20022;-54
2021/12/17 09:55:14;;;;;;;2.92;1.98;;;5.50;99.90;;;;;;5029158;28;20065;-50
2021/12/17 09:57:40;;;;;;;2.70;1.90;;;5.60;99.90;;;;;;5030471;28;20032;-54
2021/12/17 10:00:10;;;;;;;2.83;1.90;;;5.50;99.90;;;;;;5029047;28;20018;-52
2021/12/17 10:02:36;;;;;;;2.17;1.90;;;5.50;99.90;;;;;;5030266;28;20033;-51
2021/12/17 10:05:02;;;;;;;2.75;1.60;;;5.50;99.90;;;;;;5023034;28;20380;-52
2021/12/17 10:07:30;;;;;;;2.70;1.58;;;5.60;99.90;;;;;;5028028;28;20031;-52
2021/12/17 10:09:58;;;;;;;2.28;1.30;;;5.60;99.90;;;;;;5029689;28;20037;-55
2021/12/17 10:12:30;;;;;;;1.95;1.48;;;5.60;99.90;;;;;;5037083;28;20045;-52
2021/12/17 10:15:05;;;;;;;3.28;1.80;;;5.60;99.90;;;;;;5047866;28;20029;-53
2021/12/17 10:17:31;;;;;;;1.40;1.30;;;5.60;99.90;;;;;;5049123;28;20541;-53
2021/12/17 10:19:57;;;;;;;2.03;1.80;;;5.50;99.90;;;;;;5049532;28;20080;-52
2021/12/17 10:22:25;;;;;;;1.95;1.33;;;5.50;99.90;;;;;;5040655;28;20438;-51
2021/12/17 10:24:58;;;;;;;2.67;2.10;;;5.60;99.90;;;;;;5029862;28;20108;-55
2021/12/17 10:27:27;;;;;;;4.97;2.00;;;5.60;99.90;;;;;;5030141;28;20181;-55
2021/12/17 10:29:54;;;;;;;1.95;1.65;;;5.60;99.90;;;;;;5029498;28;20036;-56
2021/12/17 10:32:23;;;;;;;3.67;2.80;;;5.70;99.90;;;;;;5029464;28;20040;-52
2021/12/17 10:34:59;;;;;;;2.13;1.92;;;5.60;99.90;;;;;;5029765;28;20102;-52
2021/12/17 10:37:33;;;;;;;2.42;1.73;;;5.70;99.90;;;;;;5029530;28;20037;-53
2021/12/17 10:39:58;;;;;;;2.70;2.15;;;5.60;99.90;;;;;;5029148;28;20093;-52
2021/12/17 10:42:38;;;;;;;2.78;2.30;;;5.60;99.90;;;;;;5029831;28;20121;-52
2021/12/17 10:45:11;;;;;;;3.88;2.53;;;5.70;99.90;;;;;;5029379;28;20052;-51
2021/12/17 10:47:46;;;;;;;5.07;3.15;;;5.70;99.90;;;;;;5030212;28;20151;-51
2021/12/17 10:50:23;;;;;;;3.07;2.30;;;5.70;99.90;;;;;;5033571;28;20063;-55
2021/12/17 10:52:56;;;;;;;3.00;2.47;;;5.70;99.90;;;;;;5038569;28;20276;-53
2021/12/17 10:55:24;;;;;;;5.22;3.35;;;5.80;99.90;;;;;;5036730;28;20025;-51
2021/12/17 10:57:50;;;;;;;3.53;2.30;;;5.80;99.90;;;;;;5041347;28;20025;-55
2021/12/17 11:00:17;;;;;;;4.55;2.72;;;5.80;99.90;;;;;;5049946;28;20264;-54
2021/12/17 11:02:53;;;;;;;5.25;3.63;;;5.90;99.90;;;;;;5053078;28;20021;-52
2021/12/17 11:05:21;;;;;;;2.55;1.95;;;5.90;99.90;;;;;;5050698;28;20024;-54
2021/12/17 11:07:48;;;;;;;2.05;1.65;;;5.90;99.90;;;;;;5053061;28;20025;-54
2021/12/17 11:10:16;;;;;;;3.30;2.13;;;5.90;99.90;;;;;;5051503;28;20028;-51
2021/12/17 11:12:45;;;;;;;4.57;2.03;;;5.90;99.90;;;;;;5013141;28;20053;-50
2021/12/17 11:15:14;;;;;;;3.42;2.30;;;5.90;99.90;;;;;;5014776;28;20033;-51
2021/12/17 11:17:42;;;;;;;3.30;1.95;;;5.90;99.90;;;;;;5051946;28;20043;-53
2021/12/17 11:20:16;;;;;;;3.90;2.00;;;6.00;99.90;;;;;;5013326;28;20037;-54
2021/12/17 11:22:44;;;;;;;4.90;2.53;;;6.00;99.90;;;;;;5013713;28;20029;-55
2021/12/17 11:25:11;;;;;;;4.65;2.47;;;6.00;99.90;;;;;;5045794;28;20494;-52
2021/12/17 11:27:37;;;;;;;3.03;2.38;;;6.10;99.90;;;;;;5051995;28;20033;-53
2021/12/17 11:30:09;;;;;;;2.60;2.40;;;6.10;99.90;;;;;;5052145;28;20510;-54
2021/12/17 11:32:38;;;;;;;2.22;1.83;;;6.20;99.90;;;;;;5052279;28;20510;-53
2021/12/17 11:35:05;;;;;;;2.17;1.80;;;6.20;99.90;;;;;;5030485;28;20096;-53
2021/12/17 11:37:31;;;;;;;3.20;1.83;;;6.30;99.90;;;;;;5032140;28;20109;-51
2021/12/17 11:40:07;;;;;;;2.03;1.70;;;6.30;99.90;;;;;;5031297;28;20033;-53
2021/12/17 11:43:14;;;;;;;2.92;2.35;;;6.30;99.90;;;;;;5031746;28;20091;-52
2021/12/17 11:45:40;;;;;;;4.10;2.97;;;6.40;99.90;;;;;;5011543;28;20030;-54
2021/12/17 11:48:19;;;;;;;10.15;5.57;;;6.40;99.90;;;;;;5015242;28;20082;-53
2021/12/17 11:51:01;;;;;;;11.95;7.55;;;6.40;99.90;;;;;;5031128;28;20026;-50
2021/12/17 11:53:26;;;;;;;14.48;8.40;;;6.40;99.90;;;;;;5015905;28;20053;-53
2021/12/17 11:55:57;;;;;;;15.77;9.80;;;6.40;99.90;;;;;;5030456;28;20052;-52
2021/12/17 11:58:53;;;;;;;15.15;8.52;;;6.40;99.90;;;;;;5035802;28;20400;-52
2021/12/17 12:01:49;;;;;;;15.02;9.15;;;6.40;99.90;;;;;;5021941;28;20438;-53
2021/12/17 12:04:25;;;;;;;12.95;7.47;;;6.40;99.90;;;;;;5030603;28;20026;-55
2021/12/17 12:07:20;;;;;;;9.25;6.32;;;6.40;99.90;;;;;;5031535;28;20060;-55
2021/12/17 12:10:03;;;;;;;15.18;7.05;;;6.40;99.90;;;;;;5025807;28;20086;-53
2021/12/17 12:12:35;;;;;;;12.07;6.65;;;6.50;99.90;;;;;;5027785;28;20380;-54
2021/12/17 12:15:30;;;;;;;8.07;5.90;;;6.50;99.90;;;;;;5043271;28;20040;-55
2021/12/17 12:18:09;;;;;;;10.75;5.85;;;6.40;99.90;;;;;;5049455;28;20017;-56
2021/12/17 12:20:50;;;;;;;11.60;5.78;;;6.40;99.90;;;;;;5050862;28;20443;-52
2021/12/17 12:23:37;;;;;;;6.97;4.80;;;6.50;99.90;;;;;;5043002;28;20072;-55
2021/12/17 12:28:53;;;;;;;9.52;5.65;;;6.50;99.90;;;;;;5051154;28;20327;-54
2021/12/17 12:31:25;;;;;;;8.80;4.90;;;6.50;99.90;;;;;;5051099;28;20025;-55
2021/12/17 12:36:59;;;;;;;6.25;4.78;;;6.50;99.90;;;;;;5036328;28;20124;-55
2021/12/17 12:39:30;;;;;;;;;;;6.60;99.90;;;;;;5031631;28;20061;-55
2021/12/17 12:41:55;;;;;;;5.30;4.47;;;6.60;99.90;;;;;;5030867;28;20364;-52
2021/12/17 12:44:43;;;;;;;7.13;4.50;;;6.60;99.90;;;;;;5031057;28;20033;-51
2021/12/17 12:47:13;;;;;;;7.22;5.22;;;6.60;99.90;;;;;;5048529;28;20025;-53
2021/12/17 12:49:50;;;;;;;7.40;4.43;;;6.60;99.90;;;;;;5050620;28;20402;-55
2021/12/17 12:52:21;;;;;;;9.20;5.05;;;6.60;99.90;;;;;;5031824;28;20030;-54
2021/12/17 12:54:55;;;;;;;6.72;4.72;;;6.60;99.90;;;;;;5030902;28;20052;-53
2021/12/17 12:57:33;;;;;;;13.70;9.77;;;6.70;99.90;;;;;;5031261;28;20065;-53
2021/12/17 13:00:28;;;;;;;12.20;8.10;;;6.70;99.90;;;;;;5030911;28;20078;-54
2021/12/17 13:03:15;;;;;;;8.50;6.78;;;6.70;99.90;;;;;;5027768;28;20037;-55
2021/12/17 13:05:44;;;;;;;6.70;4.47;;;6.70;99.90;;;;;;5030180;28;20400;-52
2021/12/17 13:08:12;;;;;;;5.88;4.20;;;6.70;99.90;;;;;;5030102;28;20052;-54
2021/12/17 13:10:54;;;;;;;6.65;5.72;;;6.70;99.90;;;;;;5010936;28;20091;-55
2021/12/17 13:23:38;;;;;;;7.13;4.65;;;6.90;99.90;;;;;;5010465;28;20484;-55
2021/12/17 13:26:09;;;;;;;15.50;12.82;;;6.90;99.90;;;;;;5010596;28;20052;-55
2021/12/17 13:29:00;;;;;;;11.75;9.23;;;6.90;99.90;;;;;;5010642;28;20034;-55
2021/12/17 13:31:35;;;;;;;8.88;6.47;;;6.90;99.90;;;;;;5010579;28;20103;-52
2021/12/17 13:34:00;;;;;;;10.55;8.65;;;6.90;99.90;;;;;;5010394;28;20285;-54
2021/12/17 13:36:26;;;;;;;8.43;6.40;;;6.90;99.90;;;;;;5010301;28;20030;-55
2021/12/17 13:38:58;;;;;;;8.15;6.05;;;6.90;99.90;;;;;;5010523;28;20141;-55
2021/12/17 13:41:38;;;;;;;9.18;5.80;;;7.00;99.90;;;;;;5010682;28;20488;-51
2021/12/17 13:44:05;;;;;;;10.45;6.10;;;7.00;99.90;;;;;;5027665;28;20500;-55
2021/12/17 13:46:34;;;;;;;9.93;6.53;;;7.00;99.90;;;;;;5030273;28;20039;-52
2021/12/17 13:48:59;;;;;;;9.98;5.45;;;7.00;99.90;;;;;;5030092;28;20243;-51
2021/12/17 13:51:25;;;;;;;10.00;6.38;;;7.00;99.90;;;;;;5042239;28;20044;-55
2021/12/17 13:53:52;;;;;;;12.13;5.95;;;7.00;99.90;;;;;;5038893;28;20087;-55
2021/12/17 13:56:18;;;;;;;10.55;6.07;;;7.00;99.90;;;;;;5029716;28;20021;-52
2021/12/17 13:58:43;;;;;;;10.82;7.28;;;7.00;99.90;;;;;;5028155;28;20030;-52
2021/12/17 14:01:09;;;;;;;8.65;6.18;;;7.00;99.90;;;;;;5029610;28;20026;-55
2021/12/17 14:03:38;;;;;;;10.63;6.18;;;7.00;99.90;;;;;;5044179;28;20483;-54
2021/12/17 14:06:18;;;;;;;11.75;7.57;;;7.00;99.90;;;;;;5048664;28;20094;-56
2021/12/17 14:08:44;;;;;;;10.15;5.97;;;7.10;99.90;;;;;;5033412;28;20036;-55
2021/12/17 14:11:29;;;;;;;11.30;7.15;;;7.10;99.90;;;;;;5029815;28;20025;-53
2021/12/17 14:13:55;;;;;;;11.48;7.07;;;7.10;99.90;;;;;;5029464;28;20486;-55
2021/12/17 14:16:34;;;;;;;11.65;6.55;;;7.10;99.90;;;;;;5029986;28;20029;-51
2021/12/17 14:19:03;;;;;;;9.15;5.95;;;7.20;99.90;;;;;;5030289;28;20380;-54
2021/12/17 14:21:32;;;;;;;10.23;6.07;;;7.20;99.90;;;;;;5029732;28;20036;-53
2021/12/17 14:23:58;;;;;;;10.50;6.57;;;7.20;99.90;;;;;;5047475;28;20033;-55
2021/12/17 14:26:29;;;;;;;10.55;7.07;;;7.20;99.90;;;;;;5049255;28;20056;-55
2021/12/17 14:29:06;;;;;;;11.70;6.82;;;7.20;99.90;;;;;;5030381;28;20029;-54
2021/12/17 14:31:32;;;;;;;8.20;5.57;;;7.30;99.90;;;;;;5027979;28;20032;-51
2021/12/17 14:33:58;;;;;;;6.78;5.53;;;7.30;99.90;;;;;;5033091;28;20030;-51
2021/12/17 14:36:28;;;;;;;10.68;5.85;;;7.30;99.90;;;;;;5025051;28;20045;-50
2021/12/17 14:39:06;;;;;;;9.27;5.32;;;7.30;99.90;;;;;;5027017;28;20032;-53
2021/12/17 14:41:44;;;;;;;7.80;5.10;;;7.30;99.90;;;;;;5032217;28;20434;-53
2021/12/17 14:47:04;;;;;;;8.50;5.88;;;7.30;99.90;;;;;;5030097;28;20482;-54
2021/12/17 15:00:50;;;;;;;4.70;3.42;;;7.50;99.90;;;;;;5029658;28;20546;-54
2021/12/17 15:05:44;;;;;;;4.57;3.42;;;7.40;99.90;;;;;;5028817;28;20030;-53
2021/12/17 15:08:10;;;;;;;6.35;3.83;;;7.40;99.90;;;;;;5029253;28;20099;-52
2021/12/17 15:10:36;;;;;;;5.85;4.15;;;7.40;99.90;;;;;;5029475;28;20060;-51
2021/12/17 15:13:02;;;;;;;5.85;3.85;;;7.50;99.90;;;;;;5029170;28;20029;-54
2021/12/17 15:15:35;;;;;;;8.55;4.40;;;7.50;99.90;;;;;;5029185;28;20506;-55
2021/12/17 15:18:06;;;;;;;5.22;3.92;;;7.50;99.90;;;;;;5028842;28;20057;-54
2021/12/17 15:20:33;;;;;;;7.00;4.70;;;7.50;99.90;;;;;;5028940;28;20101;-53
2021/12/17 15:23:03;;;;;;;7.15;4.18;;;7.50;99.90;;;;;;5027539;28;20172;-54
2021/12/17 15:25:28;;;;;;;7.70;5.65;;;7.40;99.90;;;;;;5043354;28;20048;-51
2021/12/17 15:27:55;;;;;;;7.03;5.63;;;7.40;99.90;;;;;;5048342;28;20491;-52
2021/12/17 15:30:24;;;;;;;8.05;6.07;;;7.40;99.90;;;;;;5048429;28;20120;-52
2021/12/17 15:32:51;;;;;;;9.27;5.65;;;7.40;99.90;;;;;;5048477;28;20033;-53
2021/12/17 15:35:19;;;;;;;6.85;5.30;;;7.40;99.90;;;;;;5052030;28;20028;-50
2021/12/17 15:37:45;;;;;;;8.80;5.50;;;7.40;99.90;;;;;;5052082;28;20025;-51
2021/12/17 15:40:11;;;;;;;10.13;6.28;;;7.50;99.90;;;;;;5052240;28;20497;-54
2021/12/17 15:42:37;;;;;;;7.38;5.00;;;7.50;99.90;;;;;;5051778;28;20029;-54
2021/12/17 15:45:04;;;;;;;7.55;5.22;;;7.50;99.90;;;;;;5050673;28;20386;-50
2021/12/17 15:47:30;;;;;;;6.60;4.60;;;7.50;99.90;;;;;;5031914;28;20037;-53
2021/12/17 15:49:55;;;;;;;5.90;3.72;;;7.50;99.90;;;;;;5033665;28;20045;-53
2021/12/17 15:52:21;;;;;;;4.90;3.95;;;7.50;99.90;;;;;;5052843;28;20025;-51
2021/12/17 15:54:47;;;;;;;5.05;3.60;;;7.40;99.90;;;;;;5051901;28;20040;-54
2021/12/17 15:57:12;;;;;;;5.50;3.97;;;7.40;99.90;;;;;;5051890;28;20400;-54
2021/12/17 15:59:39;;;;;;;7.72;4.00;;;7.40;99.90;;;;;;5051879;28;20021;-54
2021/12/17 16:02:04;;;;;;;6.35;4.10;;;7.40;99.90;;;;;;5051740;28;20021;-54
2021/12/17 16:04:36;;;;;;;3.65;3.33;;;7.30;99.90;;;;;;5050150;28;20096;-54
2021/12/17 16:07:03;;;;;;;4.50;3.75;;;7.40;99.90;;;;;;5051604;28;20033;-52
2021/12/17 16:23:08;;;;;;;7.43;5.38;;;7.30;99.90;;;;;;5037900;22;20046;-56
2021/12/17 16:25:34;;;;;;;9.88;6.70;;;7.30;99.90;;;;;;5030510;28;20299;-52
2021/12/17 16:28:00;;;;;;;11.32;6.93;;;7.30;99.90;;;;;;5029700;28;20083;-52
2021/12/17 16:30:26;;;;;;;11.88;7.88;;;7.30;99.90;;;;;;5030494;28;20506;-53